createdAt,value
2022-11-14T00:01:36.523Z,4.68
2022-11-14T00:04:31.517Z,2.53
2022-11-14T00:07:25.559Z,1.45
2022-11-14T00:10:27.564Z,3.70
2022-11-14T00:13:22.429Z,2.05
2022-11-14T00:16:18.649Z,4.95
2022-11-14T00:19:11.953Z,2.17
2022-11-14T00:22:05.920Z,3.88
2022-11-14T00:25:00.440Z,2.60
2022-11-14T00:27:54.206Z,3.05
2022-11-14T00:30:50.569Z,2.72
2022-11-14T00:33:45.997Z,1.88
2022-11-14T00:36:41.392Z,2.35
2022-11-14T00:39:35.052Z,4.05
2022-11-14T00:42:28.930Z,3.45
2022-11-14T00:45:22.158Z,4.88
2022-11-14T00:48:16.649Z,4.03
2022-11-14T00:51:12.821Z,5.32
2022-11-14T00:54:08.221Z,3.80
2022-11-14T00:57:04.793Z,2.60
2022-11-14T00:59:59.993Z,3.20
2022-11-14T01:02:58.533Z,2.30
2022-11-14T01:05:54.168Z,4.03
2022-11-14T01:08:54.712Z,1.38
2022-11-14T01:11:49.680Z,2.70
2022-11-14T01:14:44.256Z,3.13
2022-11-14T01:17:40.302Z,4.43
2022-11-14T01:20:33.974Z,3.92
2022-11-14T01:23:27.494Z,3.22
2022-11-14T01:26:24.900Z,2.58
2022-11-14T01:29:19.559Z,3.08
2022-11-14T01:32:13.390Z,4.03
2022-11-14T01:35:07.160Z,2.78
2022-11-14T01:38:04.343Z,2.70
2022-11-14T01:41:00.731Z,5.80
2022-11-14T01:43:56.225Z,1.40
2022-11-14T01:46:55.370Z,2.17
2022-11-14T01:49:52.629Z,1.92
2022-11-14T01:52:48.587Z,3.38
2022-11-14T01:56:04.748Z,2.47
2022-11-14T01:59:05.089Z,2.53
2022-11-14T02:02:01.377Z,3.88
2022-11-14T02:04:58.150Z,3.17
2022-11-14T02:07:52.488Z,1.65
2022-11-14T02:10:47.696Z,2.13
2022-11-14T02:13:41.479Z,2.63
2022-11-14T02:16:37.692Z,2.92
2022-11-14T02:19:44.926Z,1.00
2022-11-14T02:22:41.054Z,4.45
2022-11-14T02:25:35.659Z,4.85
2022-11-14T02:28:30.092Z,2.45
2022-11-14T02:31:26.600Z,2.10
2022-11-14T02:34:23.211Z,3.13
2022-11-14T02:37:16.645Z,2.50
2022-11-14T02:40:14.211Z,1.88
2022-11-14T02:43:08.626Z,1.88
2022-11-14T02:46:05.623Z,1.58
2022-11-14T02:49:00.342Z,2.40
2022-11-14T02:51:54.900Z,4.43
2022-11-14T02:54:54.168Z,1.90
2022-11-14T02:57:57.084Z,1.40
2022-11-14T03:01:18.560Z,3.08
2022-11-14T03:04:05.251Z,1.50
2022-11-14T03:06:59.755Z,4.32
2022-11-14T03:09:53.788Z,2.10
2022-11-14T03:12:49.030Z,4.15
2022-11-14T03:15:44.094Z,1.98
2022-11-14T03:18:38.341Z,2.10
2022-11-14T03:21:32.724Z,4.72
2022-11-14T03:24:26.584Z,2.13
2022-11-14T03:27:19.917Z,1.25
2022-11-14T03:30:21.948Z,2.20
2022-11-14T03:33:16.809Z,3.38
2022-11-14T03:36:11.378Z,4.90
2022-11-14T03:39:04.987Z,2.05
2022-11-14T03:41:59.142Z,2.70
2022-11-14T03:44:55.864Z,1.88
2022-11-14T03:47:52.411Z,3.42
2022-11-14T03:50:50.568Z,1.55
2022-11-14T03:53:45.939Z,1.52
2022-11-14T03:56:39.820Z,3.30
2022-11-14T03:59:52.523Z,2.25
2022-11-14T04:02:49.408Z,3.25
2022-11-14T04:05:43.156Z,2.42
2022-11-14T04:08:37.800Z,4.20
2022-11-14T04:11:31.270Z,1.80
2022-11-14T04:14:25.742Z,2.65
2022-11-14T04:17:19.627Z,3.58
2022-11-14T04:20:18.278Z,3.40
2022-11-14T04:23:12.271Z,4.50
2022-11-14T04:26:06.135Z,2.90
2022-11-14T04:29:01.806Z,1.88
2022-11-14T04:31:55.338Z,2.95
2022-11-14T04:34:49.110Z,2.95
2022-11-14T04:37:44.924Z,4.97
2022-11-14T04:40:38.853Z,2.67
2022-11-14T04:43:35.716Z,2.50
2022-11-14T04:46:30.336Z,2.38
2022-11-14T04:49:24.762Z,1.20
2022-11-14T04:52:20.896Z,5.15
2022-11-14T04:55:16.957Z,4.78
2022-11-14T04:58:10.748Z,3.60
2022-11-14T05:01:11.785Z,3.15
2022-11-14T05:04:10.210Z,2.47
2022-11-14T05:07:04.469Z,2.72
2022-11-14T05:09:58.418Z,3.60
2022-11-14T05:12:59.070Z,4.38
2022-11-14T05:15:53.966Z,4.53
2022-11-14T05:18:48.030Z,2.10
2022-11-14T05:21:42.216Z,4.68
2022-11-14T05:24:37.038Z,1.52
2022-11-14T05:27:31.019Z,1.98
2022-11-14T05:30:26.457Z,2.63
2022-11-14T05:33:22.737Z,2.53
2022-11-14T05:36:18.597Z,3.15
2022-11-14T05:39:11.910Z,2.90
2022-11-14T05:42:05.268Z,3.00
2022-11-14T05:45:03.280Z,2.92
2022-11-14T05:47:58.790Z,1.25
2022-11-14T05:50:53.512Z,2.95
2022-11-14T05:53:47.317Z,3.58
2022-11-14T05:56:43.540Z,2.50
2022-11-14T05:59:36.553Z,6.13
2022-11-14T06:02:31.281Z,2.67
2022-11-14T06:05:33.625Z,4.53
2022-11-14T06:08:28.314Z,2.38
2022-11-14T06:11:23.953Z,4.03
2022-11-14T06:14:17.760Z,2.80
2022-11-14T06:17:11.929Z,2.22
2022-11-14T06:20:05.825Z,0.95
2022-11-14T06:23:02.432Z,5.53
2022-11-14T06:25:57.113Z,3.60
2022-11-14T06:28:54.021Z,1.63
2022-11-14T06:31:47.284Z,4.97
2022-11-14T06:34:41.261Z,1.15
2022-11-14T06:37:35.286Z,3.13
2022-11-14T06:40:30.401Z,2.55
2022-11-14T06:43:24.369Z,2.15
2022-11-14T06:46:19.810Z,1.52
2022-11-14T06:49:13.806Z,1.85
2022-11-14T06:52:07.822Z,1.80
2022-11-14T06:55:01.928Z,2.15
2022-11-14T06:58:02.437Z,2.10
2022-11-14T07:01:00.066Z,1.25
2022-11-14T07:03:55.904Z,1.13
2022-11-14T07:06:51.167Z,2.97
2022-11-14T07:09:45.089Z,4.05
2022-11-14T07:12:42.352Z,2.03
2022-11-14T07:15:38.620Z,3.35
2022-11-14T07:18:37.507Z,2.80
2022-11-14T07:21:33.870Z,3.20
2022-11-14T07:24:27.955Z,2.30
2022-11-14T07:27:21.947Z,3.38
2022-11-14T07:30:19.204Z,2.85
2022-11-14T07:33:20.142Z,2.03
2022-11-14T07:36:15.097Z,3.10
2022-11-14T07:39:09.148Z,1.55
2022-11-14T07:42:04.541Z,3.50
2022-11-14T07:44:59.221Z,2.22
2022-11-14T07:47:53.367Z,1.20
2022-11-14T07:50:50.074Z,1.45
2022-11-14T07:53:44.159Z,2.95
2022-11-14T07:56:38.033Z,3.78
2022-11-14T07:59:31.571Z,2.60
2022-11-14T08:02:27.095Z,2.63
2022-11-14T08:05:43.376Z,4.53
2022-11-14T08:08:43.682Z,4.30
2022-11-14T08:11:54.604Z,5.85
2022-11-14T08:14:50.481Z,5.70
2022-11-14T08:17:44.598Z,7.63
2022-11-14T08:20:40.369Z,6.43
2022-11-14T08:23:34.189Z,3.92
2022-11-14T08:26:34.114Z,4.55
2022-11-14T08:29:30.504Z,5.68
2022-11-14T08:32:26.897Z,4.38
2022-11-14T08:35:20.700Z,6.40
2022-11-14T08:38:14.488Z,6.10
2022-11-14T08:41:10.738Z,11.88
2022-11-14T08:44:07.635Z,8.90
2022-11-14T08:47:03.999Z,5.95
2022-11-14T08:50:00.940Z,5.03
2022-11-14T08:52:59.266Z,16.38
2022-11-14T08:55:55.052Z,11.85
2022-11-14T08:58:48.664Z,16.38
2022-11-14T09:01:44.610Z,12.27
2022-11-14T09:04:38.840Z,14.07
2022-11-14T09:07:50.871Z,7.20
2022-11-14T09:10:44.780Z,5.57
2022-11-14T09:13:42.096Z,4.28
2022-11-14T09:16:41.232Z,3.20
2022-11-14T09:19:38.018Z,2.45
2022-11-14T09:22:31.847Z,2.13
2022-11-14T09:25:32.681Z,3.92
2022-11-14T09:28:28.175Z,2.30
2022-11-14T09:31:21.735Z,3.92
2022-11-14T09:34:15.660Z,2.83
2022-11-14T09:37:14.346Z,1.75
2022-11-14T09:40:07.513Z,3.72
2022-11-14T09:43:17.366Z,1.83
2022-11-14T09:46:21.533Z,1.52
2022-11-14T09:49:24.686Z,1.70
2022-11-14T09:52:31.705Z,2.30
2022-11-14T09:55:35.197Z,2.92
2022-11-14T09:58:33.119Z,2.42
2022-11-14T10:01:37.522Z,2.20
2022-11-14T10:04:45.221Z,1.73
2022-11-14T10:07:57.931Z,3.47
2022-11-14T10:11:00.500Z,3.13
2022-11-14T10:14:13.801Z,3.03
2022-11-14T10:17:13.817Z,1.73
2022-11-14T10:20:10.763Z,1.52
2022-11-14T10:23:25.111Z,1.75
2022-11-14T10:26:23.236Z,2.28
2022-11-14T10:29:36.475Z,1.98
2022-11-14T10:32:41.082Z,2.05
2022-11-14T10:35:38.807Z,1.27
2022-11-14T10:38:35.664Z,2.72
2022-11-14T10:41:55.660Z,2.92
2022-11-14T10:44:49.926Z,2.05
2022-11-14T10:47:47.960Z,2.80
2022-11-14T10:50:46.154Z,3.35
2022-11-14T10:53:48.431Z,2.13
2022-11-14T10:56:41.528Z,1.60
2022-11-14T10:59:35.664Z,2.10
2022-11-14T11:02:33.986Z,3.03
2022-11-14T11:05:30.294Z,2.90
2022-11-14T11:08:44.029Z,2.30
2022-11-14T11:11:41.184Z,1.63
2022-11-14T11:14:35.354Z,2.78
2022-11-14T11:17:35.922Z,2.25
2022-11-14T11:20:36.933Z,2.58
2022-11-14T11:23:31.769Z,3.67
2022-11-14T11:26:30.918Z,2.38
2022-11-14T11:29:25.942Z,2.83
2022-11-14T11:32:32.756Z,2.17
2022-11-14T11:35:27.623Z,3.72
2022-11-14T11:38:23.563Z,2.40
2022-11-14T11:41:52.727Z,3.15
2022-11-14T11:44:40.216Z,3.92
2022-11-14T11:47:35.366Z,2.40
2022-11-14T11:50:29.304Z,1.60
2022-11-14T11:53:25.052Z,3.65
2022-11-14T11:56:22.046Z,2.83
2022-11-14T11:59:26.836Z,2.65
2022-11-14T12:02:29.301Z,3.25
2022-11-14T12:05:31.639Z,2.22
2022-11-14T12:08:33.621Z,4.53
2022-11-14T12:11:30.844Z,1.80
2022-11-14T12:14:54.274Z,1.55
2022-11-14T12:18:18.017Z,1.73
2022-11-14T12:21:23.940Z,3.00
2022-11-14T12:24:46.727Z,1.92
2022-11-14T12:27:54.308Z,4.97
2022-11-14T12:31:00.333Z,2.03
2022-11-14T12:34:00.842Z,1.42
2022-11-14T12:36:57.280Z,1.10
2022-11-14T12:40:02.974Z,2.05
2022-11-14T12:43:00.157Z,0.90
2022-11-14T12:46:05.528Z,1.90
2022-11-14T12:49:09.119Z,1.23
2022-11-14T12:52:03.494Z,2.40
2022-11-14T12:55:01.719Z,1.25
2022-11-14T12:58:04.765Z,1.52
2022-11-14T13:01:25.443Z,0.55
2022-11-14T13:04:37.309Z,2.10
2022-11-14T13:07:46.415Z,2.28
2022-11-14T13:10:45.236Z,1.08
2022-11-14T13:14:21.144Z,1.55
2022-11-14T13:17:46.631Z,1.90
2022-11-14T13:20:58.057Z,1.10
2022-11-14T13:24:04.104Z,0.98
2022-11-14T13:26:59.507Z,2.53
2022-11-14T13:29:54.866Z,0.80
2022-11-14T13:33:10.916Z,1.65
2022-11-14T13:36:10.970Z,1.35
2022-11-14T13:39:18.679Z,2.50
2022-11-14T13:42:26.946Z,1.70
2022-11-14T13:45:49.899Z,1.25
2022-11-14T13:49:13.027Z,2.30
2022-11-14T13:52:10.931Z,1.63
2022-11-14T13:55:07.421Z,0.32
2022-11-14T13:58:12.316Z,1.23
2022-11-14T14:01:26.960Z,1.25
2022-11-14T14:04:44.631Z,2.10
2022-11-14T14:07:55.205Z,1.75
2022-11-14T14:11:01.836Z,1.05
2022-11-14T14:14:05.074Z,1.23
2022-11-14T14:17:05.722Z,1.00
2022-11-14T14:20:14.237Z,0.95
2022-11-14T14:23:21.775Z,0.57
2022-11-14T14:26:28.742Z,1.70
2022-11-14T14:29:30.122Z,1.60
2022-11-14T14:32:24.357Z,1.83
2022-11-14T14:35:29.641Z,1.75
2022-11-14T14:38:32.915Z,1.73
2022-11-14T14:41:27.735Z,2.58
2022-11-14T14:44:37.550Z,0.68
2022-11-14T14:47:46.025Z,0.88
2022-11-14T14:50:44.272Z,1.05
2022-11-14T14:53:41.017Z,1.52
2022-11-14T14:56:34.954Z,0.55
2022-11-14T14:59:30.761Z,2.70
2022-11-14T15:02:28.492Z,1.15
2022-11-14T15:05:30.176Z,1.60
2022-11-14T15:08:24.824Z,2.33
2022-11-14T15:11:21.280Z,2.00
2022-11-14T15:14:38.039Z,1.38
2022-11-14T15:17:35.995Z,2.65
2022-11-14T15:20:35.992Z,1.42
2022-11-14T15:23:29.230Z,1.85
2022-11-14T15:26:25.521Z,0.77
2022-11-14T15:29:31.067Z,2.08
2022-11-14T15:32:29.823Z,1.10
2022-11-14T15:35:36.953Z,1.55
2022-11-14T15:38:48.995Z,1.38
2022-11-14T15:41:46.048Z,0.50
2022-11-14T15:44:44.361Z,1.05
2022-11-14T15:47:52.070Z,2.33
2022-11-14T15:50:58.480Z,3.85
2022-11-14T15:53:56.247Z,1.27
2022-11-14T15:56:53.198Z,1.15
2022-11-14T15:59:49.017Z,0.40
2022-11-14T16:02:53.745Z,2.15
2022-11-14T16:05:47.860Z,0.30
2022-11-14T16:08:42.100Z,1.00
2022-11-14T16:11:42.021Z,1.02
2022-11-14T16:14:38.745Z,1.48
2022-11-14T16:17:33.634Z,1.00
2022-11-14T16:20:42.360Z,2.22
2022-11-14T16:23:37.981Z,1.52
2022-11-14T16:26:32.115Z,2.58
2022-11-14T16:29:29.148Z,0.85
2022-11-14T16:32:25.851Z,0.77
2022-11-14T16:35:21.393Z,1.70
2022-11-14T16:38:20.019Z,0.98
2022-11-14T16:41:14.021Z,2.45
2022-11-14T16:44:09.798Z,1.23
2022-11-14T16:47:13.581Z,1.50
2022-11-14T16:50:11.264Z,1.98
2022-11-14T16:53:07.463Z,3.35
2022-11-14T16:56:14.341Z,2.78
2022-11-14T16:59:23.825Z,1.73
2022-11-14T17:02:27.044Z,3.00
2022-11-14T17:05:26.012Z,1.90
2022-11-14T17:08:39.111Z,1.95
2022-11-14T17:11:34.022Z,0.98
2022-11-14T17:14:31.705Z,1.05
2022-11-14T17:17:56.114Z,2.33
2022-11-14T17:20:54.464Z,1.85
2022-11-14T17:23:53.196Z,2.10
2022-11-14T17:26:47.703Z,1.02
2022-11-14T17:29:46.015Z,2.72
2022-11-14T17:32:46.140Z,2.75
2022-11-14T17:35:48.389Z,1.48
2022-11-14T17:38:50.620Z,1.80
2022-11-14T17:41:46.663Z,1.52
2022-11-14T17:44:44.095Z,2.67
2022-11-14T17:47:39.404Z,2.17
2022-11-14T17:50:37.894Z,2.17
2022-11-14T17:53:32.810Z,3.00
2022-11-14T17:56:34.012Z,3.50
2022-11-14T17:59:29.546Z,2.22
2022-11-14T18:02:25.745Z,2.33
2022-11-14T18:05:22.046Z,1.35
2022-11-14T18:08:18.206Z,4.30
2022-11-14T18:11:13.111Z,2.83
2022-11-14T18:14:09.132Z,2.63
2022-11-14T18:17:12.789Z,2.50
2022-11-14T18:20:07.596Z,2.58
2022-11-14T18:23:03.145Z,2.20
2022-11-14T18:26:00.499Z,1.80
2022-11-14T18:28:58.705Z,2.63
2022-11-14T18:31:54.547Z,2.45
2022-11-14T18:34:48.462Z,1.48
2022-11-14T18:37:42.195Z,1.90
2022-11-14T18:40:35.993Z,1.05
2022-11-14T18:43:32.462Z,2.15
2022-11-14T18:46:34.409Z,2.58
2022-11-14T18:49:34.132Z,1.38
2022-11-14T18:52:27.219Z,2.67
2022-11-14T18:55:21.108Z,2.70
2022-11-14T18:58:14.999Z,1.63
2022-11-14T19:01:15.750Z,0.82
2022-11-14T19:04:15.759Z,1.58
2022-11-14T19:07:11.614Z,2.78
2022-11-14T19:10:09.846Z,3.45
2022-11-14T19:13:12.019Z,3.55
2022-11-14T19:16:08.064Z,3.00
2022-11-14T19:19:01.877Z,3.92
2022-11-14T19:21:59.994Z,1.83
2022-11-14T19:25:03.312Z,4.18
2022-11-14T19:27:58.946Z,2.75
2022-11-14T19:30:56.742Z,2.13
2022-11-14T19:33:52.069Z,2.13
2022-11-14T19:36:59.945Z,3.88
2022-11-14T19:39:57.162Z,2.15
2022-11-14T19:42:53.452Z,2.03
2022-11-14T19:45:48.737Z,2.25
2022-11-14T19:48:45.070Z,4.45
2022-11-14T19:51:39.767Z,1.88
2022-11-14T19:54:35.810Z,3.60
2022-11-14T19:57:35.857Z,4.68
2022-11-14T20:00:34.241Z,2.47
2022-11-14T20:03:28.818Z,3.40
2022-11-14T20:06:25.156Z,3.42
2022-11-14T20:09:21.376Z,2.10
2022-11-14T20:12:16.066Z,3.38
2022-11-14T20:15:13.850Z,2.60
2022-11-14T20:18:07.787Z,2.63
2022-11-14T20:21:06.455Z,3.92
2022-11-14T20:24:00.018Z,3.28
2022-11-14T20:26:56.525Z,3.83
2022-11-14T20:29:52.651Z,2.95
2022-11-14T20:32:52.237Z,2.00
2022-11-14T20:35:45.671Z,3.22
2022-11-14T20:38:41.603Z,4.00
2022-11-14T20:41:37.729Z,4.70
2022-11-14T20:44:32.773Z,3.47
2022-11-14T20:47:26.544Z,7.32
2022-11-14T21:35:03.374Z,4.82
2022-11-14T21:38:02.691Z,4.15
2022-11-14T21:41:00.861Z,1.92
2022-11-14T21:43:56.666Z,3.63
2022-11-14T21:46:51.383Z,3.03
2022-11-14T21:49:44.816Z,1.95
2022-11-14T21:52:40.096Z,2.47
2022-11-14T21:55:34.471Z,1.13
2022-11-14T21:58:27.947Z,2.15
2022-11-14T22:01:43.800Z,2.85
2022-11-14T22:04:35.260Z,1.40
2022-11-14T22:07:28.174Z,1.10
2022-11-14T22:10:23.633Z,1.13
2022-11-14T22:13:16.993Z,3.80
2022-11-14T22:16:13.040Z,1.52
2022-11-14T22:19:06.057Z,1.15
2022-11-14T22:22:00.112Z,1.55
2022-11-14T22:24:56.276Z,0.95
2022-11-14T22:27:51.011Z,3.83
2022-11-14T22:30:45.637Z,1.85
2022-11-14T22:33:46.853Z,1.10
2022-11-14T22:36:40.729Z,2.08
2022-11-14T22:39:34.096Z,1.15
2022-11-14T22:42:27.243Z,2.45
2022-11-14T22:45:23.028Z,3.05
2022-11-14T22:48:16.017Z,4.03
2022-11-14T22:51:11.855Z,6.05
2022-11-14T22:54:05.005Z,9.25
2022-11-14T22:56:59.374Z,5.85
2022-11-14T22:59:53.026Z,7.30
2022-11-14T23:02:55.187Z,5.95
2022-11-14T23:05:47.830Z,7.57
2022-11-14T23:08:42.517Z,10.70
2022-11-14T23:11:36.311Z,8.95
2022-11-14T23:14:29.472Z,11.40
2022-11-14T23:17:23.735Z,7.10
2022-11-14T23:20:19.075Z,6.43
2022-11-14T23:23:12.207Z,6.65
2022-11-14T23:26:07.971Z,10.32
2022-11-14T23:29:00.993Z,8.05
2022-11-14T23:31:55.196Z,8.55
2022-11-14T23:34:51.017Z,11.38
2022-11-14T23:37:46.221Z,10.73
2022-11-14T23:40:39.075Z,13.60
2022-11-14T23:43:33.501Z,12.82
2022-11-14T23:46:26.121Z,14.75
2022-11-14T23:49:19.230Z,10.77
2022-11-14T23:52:12.830Z,11.88
2022-11-14T23:55:08.936Z,11.88
2022-11-14T23:58:02.254Z,9.95
